createdAt,value
2018-04-13T00:00:08.905Z,999.29
2018-04-13T00:01:08.928Z,999.19
2018-04-13T00:02:08.961Z,999.29
2018-04-13T00:03:08.986Z,999.29
2018-04-13T00:04:09.004Z,999.28
2018-04-13T00:05:09.035Z,999.23
2018-04-13T00:06:09.046Z,999.23
2018-04-13T00:07:09.067Z,999.23
2018-04-13T00:08:09.088Z,999.28
2018-04-13T00:09:09.110Z,999.24
2018-04-13T00:10:09.132Z,999.29
2018-04-13T00:11:09.153Z,999.31
2018-04-13T00:12:09.179Z,999.21
2018-04-13T00:13:09.195Z,999.27
2018-04-13T00:14:09.217Z,999.25
2018-04-13T00:15:09.238Z,999.27
2018-04-13T00:16:09.260Z,999.26
2018-04-13T00:17:09.282Z,999.24
2018-04-13T00:18:09.303Z,999.27
2018-04-13T00:19:09.329Z,999.28
2018-04-13T00:20:09.345Z,999.23
2018-04-13T00:21:09.371Z,999.20
2018-04-13T00:22:09.389Z,999.23
2018-04-13T00:23:09.412Z,999.20
2018-04-13T00:24:09.443Z,999.18
2018-04-13T00:25:09.477Z,999.20
2018-04-13T00:26:09.486Z,999.19
2018-04-13T00:27:09.508Z,999.17
2018-04-13T00:28:09.529Z,999.24
2018-04-13T00:29:09.550Z,999.19
2018-04-13T00:30:09.572Z,999.21
2018-04-13T00:31:09.665Z,999.15
2018-04-13T00:32:09.615Z,999.16
2018-04-13T00:33:09.636Z,999.20
2018-04-13T00:34:09.671Z,999.13
2018-04-13T00:35:09.679Z,999.16
2018-04-13T00:36:09.700Z,999.20
2018-04-13T00:37:09.723Z,999.20
2018-04-13T00:38:09.744Z,999.20
2018-04-13T00:39:09.765Z,999.15
2018-04-13T00:40:09.786Z,999.15
2018-04-13T00:41:09.811Z,999.13
2018-04-13T00:42:09.829Z,999.17
2018-04-13T00:43:09.852Z,999.18
2018-04-13T00:44:09.873Z,999.17
2018-04-13T00:45:09.895Z,999.20
2018-04-13T00:46:09.928Z,999.22
2018-04-13T00:47:09.948Z,999.24
2018-04-13T00:48:09.971Z,999.22
2018-04-13T00:49:09.991Z,999.17
2018-04-13T00:50:10.015Z,999.20
2018-04-13T00:51:10.035Z,999.20
2018-04-13T00:52:10.056Z,999.19
2018-04-13T00:53:10.081Z,999.17
2018-04-13T00:54:10.099Z,999.17
2018-04-13T00:55:10.120Z,999.09
2018-04-13T00:56:10.142Z,999.17
2018-04-13T00:57:10.163Z,999.17
2018-04-13T00:58:10.185Z,999.17
2018-04-13T00:59:10.206Z,999.14
2018-04-13T01:00:10.227Z,999.11
2018-04-13T01:01:10.248Z,999.12
2018-04-13T01:02:10.271Z,999.12
2018-04-13T01:03:10.291Z,999.13
2018-04-13T01:04:10.313Z,999.04
2018-04-13T01:05:10.335Z,999.11
2018-04-13T01:06:10.355Z,999.10
2018-04-13T01:07:10.376Z,999.12
2018-04-13T01:08:10.398Z,999.12
2018-04-13T01:09:10.420Z,999.11
2018-04-13T01:10:10.454Z,999.13
2018-04-13T01:11:10.473Z,999.10
2018-04-13T01:12:10.495Z,999.11
2018-04-13T01:13:10.519Z,999.15
2018-04-13T01:14:10.538Z,999.12
2018-04-13T01:15:10.558Z,999.11
2018-04-13T01:16:10.582Z,999.11
2018-04-13T01:17:10.602Z,999.09
2018-04-13T01:18:10.624Z,999.05
2018-04-13T01:19:10.644Z,999.09
2018-04-13T01:20:10.667Z,999.10
2018-04-13T01:21:10.687Z,999.10
2018-04-13T01:22:10.709Z,999.03
2018-04-13T01:23:10.730Z,999.05
2018-04-13T01:24:10.752Z,999.04
2018-04-13T01:25:10.773Z,999.05
2018-04-13T01:26:10.795Z,999.02
2018-04-13T01:27:10.820Z,999.04
2018-04-13T01:28:10.838Z,999.05
2018-04-13T01:29:10.859Z,999.11
2018-04-13T01:30:10.881Z,999.05
2018-04-13T01:31:10.902Z,999.07
2018-04-13T01:32:10.923Z,999.05
2018-04-13T01:33:10.945Z,999.05
2018-04-13T01:34:10.980Z,999.03
2018-04-13T01:35:10.988Z,999.05
2018-04-13T01:36:11.022Z,999.04
2018-04-13T01:37:11.035Z,999.08
2018-04-13T01:38:11.065Z,999.02
2018-04-13T01:39:11.088Z,999.06
2018-04-13T01:40:11.108Z,999.03
2018-04-13T01:41:11.129Z,999.08
2018-04-13T01:42:11.150Z,999.04
2018-04-13T01:43:11.172Z,999.04
2018-04-13T01:44:11.193Z,999.04
2018-04-13T01:45:11.218Z,999.11
2018-04-13T01:46:11.236Z,999.04
2018-04-13T01:47:11.257Z,999.08
2018-04-13T01:48:11.278Z,999.02
2018-04-13T01:49:11.301Z,999.03
2018-04-13T01:50:11.323Z,999.00
2018-04-13T01:51:11.343Z,999.04
2018-04-13T01:52:11.364Z,999.04
2018-04-13T01:53:11.387Z,999.05
2018-04-13T01:54:11.412Z,999.01
2018-04-13T01:55:11.432Z,999.01
2018-04-13T01:56:11.450Z,999.03
2018-04-13T01:57:11.470Z,998.97
2018-04-13T01:58:11.493Z,998.96
2018-04-13T01:59:11.514Z,999.02
2018-04-13T02:00:11.537Z,999.03
2018-04-13T02:01:11.557Z,998.94
2018-04-13T02:02:11.579Z,998.88
2018-04-13T02:03:11.605Z,998.95
2018-04-13T02:04:11.625Z,998.95
2018-04-13T02:05:11.655Z,998.92
2018-04-13T02:06:11.675Z,998.91
2018-04-13T02:07:11.697Z,998.89
2018-04-13T02:08:11.718Z,998.91
2018-04-13T02:09:11.754Z,998.89
2018-04-13T02:10:11.761Z,998.95
2018-04-13T02:11:11.783Z,998.94
2018-04-13T02:12:11.809Z,998.94
2018-04-13T02:13:11.828Z,998.95
2018-04-13T02:14:11.847Z,998.97
2018-04-13T02:15:11.870Z,998.97
2018-04-13T02:16:11.890Z,998.96
2018-04-13T02:17:11.911Z,999.02
2018-04-13T02:18:11.946Z,998.95
2018-04-13T02:19:11.956Z,998.97
2018-04-13T02:20:11.975Z,998.89
2018-04-13T02:21:11.997Z,998.96
2018-04-13T02:22:12.018Z,998.94
2018-04-13T02:23:12.041Z,998.86
2018-04-13T02:24:12.061Z,998.89
2018-04-13T02:25:12.083Z,998.95
2018-04-13T02:26:12.103Z,998.93
2018-04-13T02:27:12.138Z,998.86
2018-04-13T02:28:12.146Z,998.90
2018-04-13T02:29:12.167Z,998.85
2018-04-13T02:30:12.189Z,998.86
2018-04-13T02:31:12.210Z,998.89
2018-04-13T02:32:12.232Z,998.90
2018-04-13T02:33:12.253Z,998.91
2018-04-13T02:34:12.287Z,998.87
2018-04-13T02:35:12.296Z,998.92
2018-04-13T02:36:12.319Z,998.95
2018-04-13T02:37:12.338Z,998.96
2018-04-13T02:38:12.361Z,998.99
2018-04-13T02:39:12.381Z,999.00
2018-04-13T02:40:12.407Z,999.00
2018-04-13T02:41:12.425Z,998.98
2018-04-13T02:42:12.447Z,999.02
2018-04-13T02:43:12.468Z,998.96
2018-04-13T02:44:12.490Z,998.99
2018-04-13T02:45:12.523Z,999.01
2018-04-13T02:46:12.552Z,998.98
2018-04-13T02:47:12.555Z,999.00
2018-04-13T02:48:12.588Z,998.95
2018-04-13T02:49:12.609Z,998.92
2018-04-13T02:50:12.630Z,998.87
2018-04-13T02:51:12.651Z,998.95
2018-04-13T02:52:12.674Z,999.00
2018-04-13T02:53:12.694Z,999.02
2018-04-13T02:54:12.714Z,999.06
2018-04-13T02:55:12.737Z,999.05
2018-04-13T02:56:12.757Z,999.09
2018-04-13T02:57:12.779Z,999.02
2018-04-13T02:58:12.802Z,999.06
2018-04-13T02:59:12.824Z,999.08
2018-04-13T03:00:12.842Z,999.07
2018-04-13T03:01:12.865Z,999.04
2018-04-13T03:02:12.886Z,999.05
2018-04-13T03:03:12.907Z,999.06
2018-04-13T03:04:12.935Z,999.03
2018-04-13T03:05:12.949Z,999.07
2018-04-13T03:06:12.970Z,999.04
2018-04-13T03:07:12.992Z,999.05
2018-04-13T03:08:13.015Z,999.02
2018-04-13T03:09:13.036Z,999.04
2018-04-13T03:10:13.058Z,999.05
2018-04-13T03:11:13.079Z,999.04
2018-04-13T03:12:13.104Z,999.09
2018-04-13T03:13:13.121Z,999.09
2018-04-13T03:14:13.144Z,999.12
2018-04-13T03:15:13.164Z,999.18
2018-04-13T03:16:13.186Z,999.16
2018-04-13T03:17:13.207Z,999.14
2018-04-13T03:18:13.229Z,999.18
2018-04-13T03:19:13.250Z,999.14
2018-04-13T03:20:13.271Z,999.15
2018-04-13T03:21:13.293Z,999.07
2018-04-13T03:22:13.321Z,999.11
2018-04-13T03:23:13.335Z,999.13
2018-04-13T03:24:13.357Z,999.10
2018-04-13T03:25:13.378Z,999.08
2018-04-13T03:26:13.399Z,999.12
2018-04-13T03:27:13.421Z,999.06
2018-04-13T03:28:13.443Z,999.08
2018-04-13T03:29:13.463Z,999.09
2018-04-13T03:30:13.487Z,999.07
2018-04-13T03:31:13.512Z,999.10
2018-04-13T03:32:13.528Z,999.10
2018-04-13T03:33:13.549Z,999.10
2018-04-13T03:34:13.570Z,999.04
2018-04-13T03:35:13.591Z,999.04
2018-04-13T03:36:13.614Z,999.08
2018-04-13T03:37:13.634Z,999.05
2018-04-13T03:38:13.656Z,999.06
2018-04-13T03:39:13.676Z,999.06
2018-04-13T03:40:13.699Z,999.10
2018-04-13T03:41:13.719Z,999.12
2018-04-13T03:42:13.740Z,999.12
2018-04-13T03:43:13.762Z,999.16
2018-04-13T03:44:13.785Z,999.12
2018-04-13T03:45:13.806Z,999.18
2018-04-13T03:46:13.827Z,999.17
2018-04-13T03:47:13.852Z,999.24
2018-04-13T03:48:13.870Z,999.21
2018-04-13T03:49:13.892Z,999.22
2018-04-13T03:50:13.913Z,999.28
2018-04-13T03:51:13.934Z,999.28
2018-04-13T03:52:13.967Z,999.26
2018-04-13T03:53:13.977Z,999.28
2018-04-13T03:54:13.998Z,999.33
2018-04-13T03:55:14.020Z,999.33
2018-04-13T03:56:14.042Z,999.33
2018-04-13T03:57:14.062Z,999.34
2018-04-13T03:58:14.088Z,999.43
2018-04-13T03:59:14.104Z,999.43
2018-04-13T04:00:14.132Z,999.39
2018-04-13T04:01:14.148Z,999.47
2018-04-13T04:02:14.169Z,999.46
2018-04-13T04:03:14.192Z,999.45
2018-04-13T04:04:14.212Z,999.50
2018-04-13T04:05:14.233Z,999.48
2018-04-13T04:06:14.258Z,999.52
2018-04-13T04:07:14.277Z,999.50
2018-04-13T04:08:14.297Z,999.51
2018-04-13T04:09:14.318Z,999.57
2018-04-13T04:10:14.341Z,999.55
2018-04-13T04:11:14.361Z,999.55
2018-04-13T04:12:14.382Z,999.51
2018-04-13T04:13:14.403Z,999.54
2018-04-13T04:14:14.426Z,999.47
2018-04-13T04:15:14.446Z,999.49
2018-04-13T04:16:14.472Z,999.49
2018-04-13T04:17:14.490Z,999.46
2018-04-13T04:18:14.510Z,999.47
2018-04-13T04:19:14.533Z,999.47
2018-04-13T04:20:14.554Z,999.48
2018-04-13T04:21:14.575Z,999.49
2018-04-13T04:22:14.597Z,999.53
2018-04-13T04:23:14.618Z,999.51
2018-04-13T04:24:14.657Z,999.53
2018-04-13T04:25:14.672Z,999.53
2018-04-13T04:26:14.694Z,999.56
2018-04-13T04:27:14.715Z,999.59
2018-04-13T04:28:14.736Z,999.59
2018-04-13T04:29:14.771Z,999.62
2018-04-13T04:30:14.779Z,999.65
2018-04-13T04:31:14.800Z,999.68
2018-04-13T04:32:14.823Z,999.72
2018-04-13T04:33:14.843Z,999.69
2018-04-13T04:34:14.874Z,999.65
2018-04-13T04:35:14.895Z,999.75
2018-04-13T04:36:14.920Z,999.75
2018-04-13T04:37:14.929Z,999.76
2018-04-13T04:38:14.963Z,999.72
2018-04-13T04:39:14.972Z,999.78
2018-04-13T04:40:14.996Z,999.80
2018-04-13T04:41:15.015Z,999.75
2018-04-13T04:42:15.036Z,999.83
2018-04-13T04:43:15.057Z,999.78
2018-04-13T04:44:15.079Z,999.74
2018-04-13T04:45:15.100Z,999.74
2018-04-13T04:46:15.121Z,999.69
2018-04-13T04:47:15.156Z,999.71
2018-04-13T04:48:15.168Z,999.66
2018-04-13T04:49:15.185Z,999.71
2018-04-13T04:50:15.208Z,999.66
2018-04-13T04:51:15.229Z,999.70
2018-04-13T04:52:15.251Z,999.67
2018-04-13T04:53:15.272Z,999.69
2018-04-13T04:54:15.294Z,999.74
2018-04-13T04:55:15.315Z,999.75
2018-04-13T04:56:15.338Z,999.77
2018-04-13T04:57:15.359Z,999.75
2018-04-13T04:58:15.380Z,999.75
2018-04-13T04:59:15.402Z,999.73
2018-04-13T05:00:15.423Z,999.74
2018-04-13T05:01:15.461Z,999.78
2018-04-13T05:02:15.479Z,999.81
2018-04-13T05:03:15.511Z,999.78
2018-04-13T05:04:15.521Z,999.80
2018-04-13T05:05:15.543Z,999.87
2018-04-13T05:06:15.563Z,999.85
2018-04-13T05:07:15.586Z,999.91
2018-04-13T05:08:15.608Z,999.92
2018-04-13T05:09:15.632Z,1000.02
2018-04-13T05:10:15.649Z,1000.10
2018-04-13T05:11:15.671Z,1000.05
2018-04-13T05:12:15.692Z,1000.09
2018-04-13T05:13:15.715Z,1000.16
2018-04-13T05:14:15.736Z,1000.17
2018-04-13T05:15:15.757Z,1000.22
2018-04-13T05:16:15.780Z,1000.22
2018-04-13T05:17:15.800Z,1000.16
2018-04-13T05:18:15.827Z,1000.26
2018-04-13T05:19:15.845Z,1000.31
2018-04-13T05:20:15.890Z,1000.26
2018-04-13T05:21:15.897Z,1000.26
2018-04-13T05:22:15.931Z,1000.25
2018-04-13T05:23:15.940Z,1000.16
2018-04-13T05:24:15.961Z,1000.28
2018-04-13T05:25:15.983Z,1000.24
2018-04-13T05:26:16.009Z,1000.24
2018-04-13T05:27:16.026Z,1000.24
2018-04-13T05:28:16.047Z,1000.25
2018-04-13T05:29:16.093Z,1000.26
2018-04-13T05:30:16.091Z,1000.23
2018-04-13T05:31:16.133Z,1000.21
2018-04-13T05:32:16.133Z,1000.30
2018-04-13T05:33:16.155Z,1000.27
2018-04-13T05:34:16.178Z,1000.33
2018-04-13T05:35:16.212Z,1000.30
2018-04-13T05:36:16.232Z,1000.31
2018-04-13T05:37:16.253Z,1000.26
2018-04-13T05:38:16.274Z,1000.25
2018-04-13T05:39:16.296Z,1000.21
2018-04-13T05:40:16.317Z,1000.18
2018-04-13T05:41:16.339Z,1000.18
2018-04-13T05:42:16.364Z,1000.21
2018-04-13T05:43:16.381Z,1000.24
2018-04-13T05:44:16.405Z,1000.26
2018-04-13T05:45:16.425Z,1000.25
2018-04-13T05:46:16.445Z,1000.20
2018-04-13T05:47:16.467Z,1000.16
2018-04-13T05:48:16.489Z,1000.20
2018-04-13T05:49:16.522Z,1000.24
2018-04-13T05:50:16.543Z,1000.27
2018-04-13T05:51:16.564Z,1000.23
2018-04-13T05:52:16.586Z,1000.24
2018-04-13T05:53:16.607Z,1000.16
2018-04-13T05:54:16.631Z,1000.18
2018-04-13T05:55:16.650Z,1000.18
2018-04-13T05:56:16.671Z,1000.21
2018-04-13T05:57:16.695Z,1000.21
2018-04-13T05:58:16.714Z,1000.24
2018-04-13T05:59:16.738Z,1000.23
2018-04-13T06:00:16.799Z,1000.21
2018-04-13T06:01:16.791Z,1000.25
2018-04-13T06:02:16.813Z,1000.20
2018-04-13T06:03:16.835Z,1000.24
2018-04-13T06:04:16.858Z,1000.18
2018-04-13T06:05:16.877Z,1000.17
2018-04-13T06:06:16.899Z,1000.19
2018-04-13T06:07:16.920Z,1000.16
2018-04-13T06:08:16.943Z,1000.16
2018-04-13T06:09:16.963Z,1000.18
2018-04-13T06:10:16.985Z,1000.19
2018-04-13T06:11:17.006Z,1000.20
2018-04-13T06:12:17.039Z,1000.22
2018-04-13T06:13:17.061Z,1000.19
2018-04-13T06:14:17.084Z,1000.25
2018-04-13T06:15:17.105Z,1000.22
2018-04-13T06:16:17.124Z,1000.24
2018-04-13T06:17:17.145Z,1000.26
2018-04-13T06:18:17.166Z,1000.22
2018-04-13T06:19:17.189Z,1000.20
2018-04-13T06:20:17.210Z,1000.24
2018-04-13T06:21:17.244Z,1000.25
2018-04-13T06:22:17.266Z,1000.26
2018-04-13T06:23:17.286Z,1000.27
2018-04-13T06:24:17.349Z,1000.27
2018-04-13T06:25:17.329Z,1000.26
2018-04-13T06:26:17.351Z,1000.35
2018-04-13T06:27:17.372Z,1000.27
2018-04-13T06:28:17.394Z,1000.36
2018-04-13T06:29:17.414Z,1000.35
2018-04-13T06:30:17.486Z,1000.42
2018-04-13T06:31:17.469Z,1000.38
2018-04-13T06:32:17.491Z,1000.38
2018-04-13T06:33:17.512Z,1000.41
2018-04-13T06:34:17.534Z,1000.42
2018-04-13T06:35:17.555Z,1000.47
2018-04-13T06:36:17.583Z,1000.48
2018-04-13T06:37:17.630Z,1000.47
2018-04-13T06:38:17.632Z,1000.49
2018-04-13T06:39:17.643Z,1000.52
2018-04-13T06:40:17.676Z,1000.56
2018-04-13T06:41:17.703Z,1000.57
2018-04-13T06:42:17.719Z,1000.63
2018-04-13T06:43:17.745Z,1000.61
2018-04-13T06:44:17.762Z,1000.78
2018-04-13T06:45:17.783Z,1000.74
2018-04-13T06:46:17.804Z,1000.73
2018-04-13T06:47:17.825Z,1000.81
2018-04-13T06:48:17.847Z,1000.77
2018-04-13T06:49:17.880Z,1000.78
2018-04-13T06:50:17.901Z,1000.81
2018-04-13T06:51:17.923Z,1000.86
2018-04-13T06:52:17.958Z,1000.89
2018-04-13T06:53:17.966Z,1001.04
2018-04-13T06:54:17.987Z,1001.05
2018-04-13T06:55:18.009Z,1001.10
2018-04-13T06:56:18.047Z,1001.12
2018-04-13T06:57:18.051Z,1001.22
2018-04-13T06:58:18.076Z,1001.26
2018-04-13T06:59:18.094Z,1001.34
2018-04-13T07:00:18.116Z,1001.39
2018-04-13T07:01:18.157Z,1001.39
2018-04-13T07:02:18.171Z,1001.42
2018-04-13T07:03:18.193Z,1001.44
2018-04-13T07:04:18.218Z,1001.50
2018-04-13T07:05:18.237Z,1001.51
2018-04-13T07:06:18.257Z,1001.55
2018-04-13T07:07:18.278Z,1001.55
2018-04-13T07:08:18.318Z,1001.52
2018-04-13T07:09:18.321Z,1001.65
2018-04-13T07:10:18.343Z,1001.67
2018-04-13T07:11:18.368Z,1001.68
2018-04-13T07:12:18.386Z,1001.74
2018-04-13T07:13:18.407Z,1001.68
2018-04-13T07:14:18.432Z,1001.66
2018-04-13T07:15:18.450Z,1001.66
2018-04-13T07:16:18.472Z,1001.67
2018-04-13T07:17:18.494Z,1001.73
2018-04-13T07:18:18.515Z,1001.70
2018-04-13T07:19:18.545Z,1001.70
2018-04-13T07:20:18.560Z,1001.67
2018-04-13T07:21:18.578Z,1001.68
2018-04-13T07:22:18.600Z,1001.63
2018-04-13T07:23:18.624Z,1001.59
2018-04-13T07:24:18.648Z,1001.55
2018-04-13T07:25:18.664Z,1001.53
2018-04-13T07:26:18.686Z,1001.49
2018-04-13T07:27:18.707Z,1001.50
2018-04-13T07:28:18.728Z,1001.52
2018-04-13T07:29:18.749Z,1001.57
2018-04-13T07:30:18.771Z,1001.53
2018-04-13T07:31:18.793Z,1001.59
2018-04-13T07:32:18.818Z,1001.56
2018-04-13T07:33:18.835Z,1001.62
2018-04-13T07:34:18.866Z,1001.66
2018-04-13T07:35:19.062Z,1001.71
2018-04-13T07:36:18.900Z,1001.73
2018-04-13T07:37:18.921Z,1001.77
2018-04-13T07:38:19.123Z,1001.78
2018-04-13T07:39:18.966Z,1001.75
2018-04-13T07:40:18.985Z,1001.74
2018-04-13T07:41:19.010Z,1001.77
2018-04-13T07:42:19.028Z,1001.75
2018-04-13T07:43:19.050Z,1001.84
2018-04-13T07:44:19.070Z,1001.84
2018-04-13T07:45:19.129Z,1001.89
2018-04-13T07:46:19.116Z,1001.98
2018-04-13T07:47:19.134Z,1001.97
2018-04-13T07:48:19.156Z,1002.06
2018-04-13T07:49:19.178Z,1002.09
2018-04-13T07:50:19.509Z,1002.05
2018-04-13T07:51:19.220Z,1002.02
2018-04-13T07:52:19.657Z,1002.06
2018-04-13T07:53:19.265Z,1002.03
2018-04-13T07:54:19.286Z,1002.04
2018-04-13T07:55:19.306Z,1002.06
2018-04-13T07:56:19.328Z,1002.14
2018-04-13T07:57:19.348Z,1002.21
2018-04-13T07:58:19.370Z,1002.22
2018-04-13T07:59:19.396Z,1002.18
2018-04-13T08:00:19.730Z,1002.14
2018-04-13T08:01:19.435Z,1002.10
2018-04-13T08:02:19.456Z,1002.15
2018-04-13T08:03:19.478Z,1002.13
2018-04-13T08:04:19.499Z,1002.06
2018-04-13T08:05:19.737Z,1001.99
2018-04-13T08:06:19.542Z,1001.98
2018-04-13T08:07:19.563Z,1001.96
2018-04-13T08:08:19.589Z,1001.91
2018-04-13T08:09:19.605Z,1001.84
2018-04-13T08:10:19.627Z,1001.83
2018-04-13T08:11:19.637Z,1001.77
2018-04-13T08:12:19.666Z,1001.72
2018-04-13T08:13:19.691Z,1001.69
2018-04-13T08:14:19.703Z,1001.73
2018-04-13T08:15:19.721Z,1001.81
2018-04-13T08:16:19.747Z,1001.74
2018-04-13T08:17:19.764Z,1001.75
2018-04-13T08:18:19.787Z,1001.66
2018-04-13T08:19:19.807Z,1001.63
2018-04-13T08:20:19.841Z,1001.54
2018-04-13T08:21:19.850Z,1001.36
2018-04-13T08:22:19.873Z,1001.28
2018-04-13T08:23:19.895Z,1001.30
2018-04-13T08:24:19.913Z,1001.24
2018-04-13T08:25:19.936Z,1001.20
2018-04-13T08:26:19.956Z,1001.25
2018-04-13T08:27:19.978Z,1001.19
2018-04-13T08:28:19.999Z,1001.13
2018-04-13T08:29:20.029Z,1001.16
2018-04-13T08:30:20.055Z,1001.19
2018-04-13T08:31:20.066Z,1001.27
2018-04-13T08:32:20.086Z,1001.33
2018-04-13T08:33:20.106Z,1001.37
2018-04-13T08:34:20.128Z,1001.35
2018-04-13T08:35:20.149Z,1001.32
2018-04-13T08:36:20.170Z,1001.34
2018-04-13T08:37:20.193Z,1001.30
2018-04-13T08:38:20.213Z,1001.35
2018-04-13T08:39:20.238Z,1001.41
2018-04-13T08:40:20.293Z,1001.38
2018-04-13T08:41:20.285Z,1001.32
2018-04-13T08:42:20.299Z,1001.32
2018-04-13T08:43:20.339Z,1001.31
2018-04-13T08:44:20.351Z,1001.27
2018-04-13T08:45:20.363Z,1001.25
2018-04-13T08:46:20.385Z,1001.23
2018-04-13T08:47:20.407Z,1001.26
2018-04-13T08:48:20.429Z,1001.24
2018-04-13T08:49:20.462Z,1001.27
2018-04-13T08:50:20.483Z,1001.31
2018-04-13T08:51:20.509Z,1001.37
2018-04-13T08:52:20.543Z,1001.44
2018-04-13T08:53:20.550Z,1001.47
2018-04-13T08:54:20.568Z,1001.44
2018-04-13T08:55:20.590Z,1001.47
2018-04-13T08:56:20.611Z,1001.46
2018-04-13T08:57:20.633Z,1001.51
2018-04-13T08:58:20.655Z,1001.46
2018-04-13T08:59:20.687Z,1001.46
2018-04-13T09:00:20.711Z,1001.37
2018-04-13T09:01:20.730Z,1001.35
2018-04-13T09:02:20.751Z,1001.39
2018-04-13T09:03:20.773Z,1001.36
2018-04-13T09:04:20.795Z,1001.37
2018-04-13T09:05:20.816Z,1001.36
2018-04-13T09:06:20.890Z,1001.43
2018-04-13T09:07:20.872Z,1001.38
2018-04-13T09:08:20.894Z,1001.43
2018-04-13T09:09:20.915Z,1001.46
2018-04-13T09:10:20.937Z,1001.45
2018-04-13T09:11:20.958Z,1001.43
2018-04-13T09:12:20.980Z,1001.44
2018-04-13T09:13:21.001Z,1001.45
2018-04-13T09:14:21.037Z,1001.47
2018-04-13T09:15:21.055Z,1001.53
2018-04-13T09:16:21.078Z,1001.56
2018-04-13T09:17:21.100Z,1001.60
2018-04-13T09:18:21.120Z,1001.56
2018-04-13T09:19:21.142Z,1001.64
2018-04-13T09:20:21.176Z,1001.63
2018-04-13T09:21:21.196Z,1001.68
2018-04-13T09:22:21.218Z,1001.71
2018-04-13T09:23:21.241Z,1001.71
2018-04-13T09:24:21.260Z,1001.68
2018-04-13T09:25:21.293Z,1001.64
2018-04-13T09:26:21.315Z,1001.66
2018-04-13T09:27:21.336Z,1001.60
2018-04-13T09:28:21.358Z,1001.56
2018-04-13T09:29:21.394Z,1001.56
2018-04-13T09:30:21.414Z,1001.57
2018-04-13T09:31:21.435Z,1001.65
2018-04-13T09:32:21.456Z,1001.65
2018-04-13T09:33:21.490Z,1001.64
2018-04-13T09:34:21.513Z,1001.70
2018-04-13T09:35:21.533Z,1001.74
2018-04-13T09:36:21.554Z,1001.81
2018-04-13T09:37:21.576Z,1001.79
2018-04-13T09:38:21.615Z,1001.82
2018-04-13T09:39:21.632Z,1001.70
2018-04-13T09:40:21.653Z,1001.65
2018-04-13T09:41:21.675Z,1001.55
2018-04-13T09:42:21.720Z,1001.67
2018-04-13T09:43:21.731Z,1001.69
2018-04-13T09:44:21.789Z,1001.68
2018-04-13T09:45:21.772Z,1001.70
2018-04-13T09:46:21.794Z,1001.74
2018-04-13T09:47:21.827Z,1001.73
2018-04-13T09:48:21.848Z,1001.88
2018-04-13T09:49:21.870Z,1001.81
2018-04-13T09:50:21.892Z,1001.86
2018-04-13T09:51:21.925Z,1001.84
2018-04-13T09:52:21.947Z,1001.83
2018-04-13T09:53:21.968Z,1001.80
2018-04-13T09:54:21.991Z,1001.84
2018-04-13T09:55:22.011Z,1001.76
2018-04-13T09:56:22.044Z,1001.89
2018-04-13T09:57:22.067Z,1001.89
2018-04-13T09:58:22.088Z,1001.94
2018-04-13T09:59:22.110Z,1001.90
2018-04-13T10:00:22.155Z,1001.89
2018-04-13T10:01:22.164Z,1001.82
2018-04-13T10:02:22.186Z,1001.76
2018-04-13T10:03:22.207Z,1001.77
2018-04-13T10:04:22.241Z,1001.76
2018-04-13T10:05:22.263Z,1001.80
2018-04-13T10:06:22.284Z,1001.71
2018-04-13T10:07:22.305Z,1001.76
2018-04-13T10:08:22.338Z,1001.75
2018-04-13T10:09:22.364Z,1001.71
2018-04-13T10:10:22.395Z,1001.66
2018-04-13T10:11:22.404Z,1001.83
2018-04-13T10:12:22.437Z,1001.84
2018-04-13T10:13:22.459Z,1001.84
2018-04-13T10:14:22.483Z,1001.76
2018-04-13T10:15:22.502Z,1001.67
2018-04-13T10:16:22.535Z,1001.62
2018-04-13T10:17:22.557Z,1001.64
2018-04-13T10:18:22.591Z,1001.59
2018-04-13T10:19:22.600Z,1001.58
2018-04-13T10:20:22.634Z,1001.67
2018-04-13T10:21:22.906Z,1001.63
2018-04-13T10:22:22.677Z,1001.63
2018-04-13T10:23:22.699Z,1001.63
2018-04-13T10:24:22.732Z,1001.65
2018-04-13T10:25:22.756Z,1001.73
2018-04-13T10:26:22.774Z,1001.62
2018-04-13T10:27:22.795Z,1001.70
2018-04-13T10:28:22.826Z,1001.72
2018-04-13T10:29:22.839Z,1001.76
2018-04-13T10:30:22.874Z,1001.80
2018-04-13T10:31:22.894Z,1001.76
2018-04-13T10:32:22.916Z,1001.72
2018-04-13T10:33:22.937Z,1001.70
2018-04-13T10:34:22.958Z,1001.67
2018-04-13T10:35:22.980Z,1001.68
2018-04-13T10:36:23.017Z,1001.69
2018-04-13T10:37:23.034Z,1001.80
2018-04-13T10:38:23.055Z,1001.82
2018-04-13T10:39:23.077Z,1001.87
2018-04-13T10:40:23.099Z,1001.86
2018-04-13T10:41:23.136Z,1001.87
2018-04-13T10:42:23.142Z,1001.89
2018-04-13T10:43:23.176Z,1001.93
2018-04-13T10:44:23.197Z,1001.98
2018-04-13T10:45:23.219Z,1001.89
2018-04-13T10:46:23.240Z,1001.94
2018-04-13T10:47:23.263Z,1002.01
2018-04-13T10:48:23.282Z,1002.01
2018-04-13T10:49:23.370Z,1001.96
2018-04-13T10:50:23.337Z,1001.95
2018-04-13T10:51:23.359Z,1001.84
2018-04-13T10:52:23.386Z,1001.87
2018-04-13T10:53:23.401Z,1001.83
2018-04-13T10:54:23.423Z,1001.76
2018-04-13T10:55:23.458Z,1001.82
2018-04-13T10:56:23.479Z,1001.82
2018-04-13T10:57:23.500Z,1001.85
2018-04-13T10:58:23.522Z,1001.92
2018-04-13T10:59:23.547Z,1001.93
2018-04-13T11:00:23.565Z,1001.97
2018-04-13T11:01:23.586Z,1001.96
2018-04-13T11:02:23.619Z,1001.97
2018-04-13T11:03:23.654Z,1001.94
2018-04-13T11:04:23.662Z,1001.94
2018-04-13T11:05:23.683Z,1001.85
2018-04-13T11:06:23.705Z,1001.83
2018-04-13T11:07:23.726Z,1001.84
2018-04-13T11:08:23.747Z,1001.85
2018-04-13T11:09:23.769Z,1001.80
2018-04-13T11:10:23.803Z,1001.90
2018-04-13T11:11:23.825Z,1001.91
2018-04-13T11:12:23.847Z,1002.02
2018-04-13T11:13:23.867Z,1001.96
2018-04-13T11:14:23.892Z,1001.85
2018-04-13T11:15:23.911Z,1001.79
2018-04-13T11:16:23.932Z,1001.76
2018-04-13T11:17:23.953Z,1001.79
2018-04-13T11:18:23.985Z,1001.78
2018-04-13T11:19:24.007Z,1001.76
2018-04-13T11:20:24.028Z,1001.75
2018-04-13T11:21:24.050Z,1001.74
2018-04-13T11:22:24.071Z,1001.69
2018-04-13T11:23:24.092Z,1001.72
2018-04-13T11:24:24.114Z,1001.65
2018-04-13T11:25:24.135Z,1001.57
2018-04-13T11:26:24.158Z,1001.55
2018-04-13T11:27:24.192Z,1001.61
2018-04-13T11:28:24.212Z,1001.51
2018-04-13T11:29:24.234Z,1001.61
2018-04-13T11:30:24.257Z,1001.65
2018-04-13T11:31:24.276Z,1001.70
2018-04-13T11:32:24.298Z,1001.73
2018-04-13T11:33:24.320Z,1001.77
2018-04-13T11:34:24.340Z,1001.72
2018-04-13T11:35:24.363Z,1001.68
2018-04-13T11:36:24.395Z,1001.76
2018-04-13T11:37:24.417Z,1001.73
2018-04-13T11:38:24.439Z,1001.80
2018-04-13T11:39:24.461Z,1001.69
2018-04-13T11:40:24.481Z,1001.68
2018-04-13T11:41:24.502Z,1001.69
2018-04-13T11:42:24.523Z,1001.62
2018-04-13T11:43:24.545Z,1001.62
2018-04-13T11:44:24.579Z,1001.52
2018-04-13T11:45:24.602Z,1001.55
2018-04-13T11:46:24.626Z,1001.57
2018-04-13T11:47:24.643Z,1001.48
2018-04-13T11:48:24.680Z,1001.43
2018-04-13T11:49:24.694Z,1001.45
2018-04-13T11:50:24.719Z,1001.44
2018-04-13T11:51:24.741Z,1001.50
2018-04-13T11:52:24.764Z,1001.46
2018-04-13T11:53:24.783Z,1001.51
2018-04-13T11:54:24.809Z,1001.54
2018-04-13T11:55:24.839Z,1001.57
2018-04-13T11:56:24.860Z,1001.48
2018-04-13T11:57:24.883Z,1001.58
2018-04-13T11:58:24.904Z,1001.50
2018-04-13T11:59:24.937Z,1001.46
2018-04-13T12:00:24.961Z,1001.36
2018-04-13T12:01:24.980Z,1001.39
2018-04-13T12:02:25.056Z,1001.44
2018-04-13T12:03:25.036Z,1001.46
2018-04-13T12:04:25.058Z,1001.32
2018-04-13T12:05:25.079Z,1001.45
2018-04-13T12:06:25.111Z,1001.37
2018-04-13T12:07:25.133Z,1001.40
2018-04-13T12:08:25.155Z,1001.45
2018-04-13T12:09:25.202Z,1001.44
2018-04-13T12:10:25.211Z,1001.53
2018-04-13T12:11:25.232Z,1001.43
2018-04-13T12:12:25.266Z,1001.47
2018-04-13T12:13:25.286Z,1001.49
2018-04-13T12:14:25.308Z,1001.45
2018-04-13T12:15:25.331Z,1001.49